Time;durP1;ratioP1;P1;durP2;ratioP2;P2;SDS_P1;SDS_P2;PMS_P1;PMS_P2;Temp;Humidity;BMP_temperature;BMP_pressure;BME280_temperature;BME280_humidity;BME280_pressure;Samples;Min_cycle;Max_cycle;Signal;HPM_P1;HPM_P2
2024/03/22 00:02:21;;;;;;;23.60;11.20;;;;;;;0.63;75.43;99730.41;79754;1295;3013607;-65
2024/03/22 00:04:47;;;;;;;22.40;12.20;;;;;;;0.63;75.40;99730.95;79659;1298;3011733;-64
2024/03/22 00:07:15;;;;;;;28.60;12.80;;;;;;;0.64;75.46;99729.20;78298;1298;3028363;-65
2024/03/22 00:09:42;;;;;;;25.10;12.20;;;;;;;0.68;75.27;99728.29;79618;1298;3013444;-65
2024/03/22 00:12:08;;;;;;;24.10;11.90;;;;;;;0.68;75.21;99733.10;79497;1296;3011505;-65
2024/03/22 00:14:36;;;;;;;28.50;11.40;;;;;;;0.69;75.50;99731.53;78308;1298;3025843;-64
2024/03/22 00:17:03;;;;;;;21.40;12.00;;;;;;;0.68;75.42;99728.45;79645;1298;3013160;-65
2024/03/22 00:19:29;;;;;;;22.10;12.10;;;;;;;0.70;75.33;99729.80;79717;1294;3011719;-64
2024/03/22 00:21:57;;;;;;;26.30;12.60;;;;;;;0.73;75.23;99731.48;78211;1294;3026237;-65
2024/03/22 00:24:24;;;;;;;22.00;11.50;;;;;;;0.75;75.03;99727.83;79524;1296;3011839;-64
2024/03/22 00:26:50;;;;;;;20.70;10.80;;;;;;;0.81;74.77;99728.23;79415;1296;3011810;-64
2024/03/22 00:29:18;;;;;;;22.70;11.30;;;;;;;0.80;74.51;99728.08;78349;1294;3028194;-64
2024/03/22 00:31:45;;;;;;;23.90;11.60;;;;;;;0.85;74.64;99725.23;79453;1296;3013710;-63
2024/03/22 00:34:11;;;;;;;21.70;11.40;;;;;;;0.86;74.34;99722.82;79789;1298;3011967;-64
2024/03/22 00:36:39;;;;;;;20.00;11.10;;;;;;;0.79;74.63;99719.99;78291;1295;3028037;-64
2024/03/22 00:39:06;;;;;;;25.40;11.90;;;;;;;0.79;74.90;99720.52;80507;1295;3020342;-64
2024/03/22 00:41:33;;;;;;;22.10;10.80;;;;;;;0.80;74.92;99718.24;79980;1296;3011796;-66
2024/03/22 00:44:00;;;;;;;24.70;11.30;;;;;;;0.84;74.71;99717.50;78502;1295;3026593;-65
2024/03/22 00:46:27;;;;;;;21.00;10.40;;;;;;;0.85;74.44;99715.59;79328;1300;3013091;-65
2024/03/22 00:48:54;;;;;;;23.10;11.10;;;;;;;0.83;74.38;99711.30;79645;1298;3011808;-64
2024/03/22 00:51:22;;;;;;;23.10;11.00;;;;;;;0.85;74.55;99710.58;78226;1295;3027415;-65
2024/03/22 00:53:48;;;;;;;23.10;11.40;;;;;;;0.89;74.42;99708.98;79780;1295;3012921;-64
2024/03/22 00:56:15;;;;;;;21.30;11.20;;;;;;;0.87;74.30;99703.48;79485;1295;3014167;-65
2024/03/22 00:58:43;;;;;;;21.50;11.20;;;;;;;0.83;74.54;99703.70;78352;1299;3027875;-64
2024/03/22 01:01:10;;;;;;;23.60;11.00;;;;;;;0.85;74.53;99700.58;79439;1295;3013660;-65
2024/03/22 01:03:36;;;;;;;21.30;10.80;;;;;;;0.79;74.73;99700.17;79458;1298;3013946;-65
2024/03/22 01:06:04;;;;;;;22.50;11.30;;;;;;;0.74;74.88;99699.21;78328;1299;3027382;-64
2024/03/22 01:08:31;;;;;;;22.20;11.80;;;;;;;0.68;75.04;99703.10;79280;1295;3013123;-65
2024/03/22 01:10:58;;;;;;;22.20;12.20;;;;;;;0.65;75.51;99700.56;79440;1296;3012133;-64
2024/03/22 01:13:26;;;;;;;24.70;12.70;;;;;;;0.59;75.80;99701.52;78086;1299;3027537;-65
2024/03/22 01:15:52;;;;;;;20.70;12.00;;;;;;;0.62;75.81;99698.02;79555;1295;3013396;-64
2024/03/22 01:18:19;;;;;;;21.80;12.30;;;;;;;0.64;75.62;99694.72;79396;1298;3011793;-65
2024/03/22 01:20:47;;;;;;;21.60;11.60;;;;;;;0.65;75.69;99696.43;78259;1300;3028737;-64
2024/03/22 01:23:13;;;;;;;25.20;12.00;;;;;;;0.66;75.67;99696.92;79631;1295;3013627;-65
2024/03/22 01:25:40;;;;;;;22.90;11.60;;;;;;;0.64;75.72;99693.68;79436;1295;3011638;-65
2024/03/22 01:28:08;;;;;;;27.70;11.40;;;;;;;0.59;75.73;99689.80;78223;1299;3026462;-64
2024/03/22 01:30:36;;;;;;;21.70;11.60;;;;;;;0.54;75.98;99693.33;79589;1295;3018793;-64
2024/03/22 01:33:03;;;;;;;26.90;12.20;;;;;;;0.49;76.45;99689.10;79435;1295;3011968;-64
2024/03/22 01:35:31;;;;;;;21.70;11.20;;;;;;;0.43;76.47;99685.91;78444;1295;3056676;-64
2024/03/22 01:37:58;;;;;;;23.10;12.40;;;;;;;0.45;76.81;99683.98;79355;1301;3015072;-64
2024/03/22 01:40:24;;;;;;;24.00;11.90;;;;;;;0.47;76.48;99683.42;79421;1300;3013488;-65
2024/03/22 01:42:53;;;;;;;21.30;11.40;;;;;;;0.46;76.95;99685.52;78149;1300;3027786;-64
2024/03/22 01:45:20;;;;;;;25.40;11.30;;;;;;;0.41;76.99;99681.46;79722;1301;3013813;-64
2024/03/22 01:47:47;;;;;;;20.70;10.70;;;;;;;0.46;76.65;99683.98;79416;1295;3013624;-64
2024/03/22 01:50:15;;;;;;;22.20;12.20;;;;;;;0.50;76.52;99685.64;78153;1300;3055638;-64
2024/03/22 01:52:42;;;;;;;21.30;9.90;;;;;;;0.48;76.64;99683.08;79621;1295;3021200;-65
2024/03/22 01:55:08;;;;;;;22.90;11.40;;;;;;;0.51;76.78;99688.04;79397;1295;3011897;-64
2024/03/22 01:57:36;;;;;;;24.60;11.00;;;;;;;0.53;76.94;99686.46;78247;1294;3026967;-64
2024/03/22 02:00:03;;;;;;;22.10;10.90;;;;;;;0.55;76.45;99684.69;79537;1298;3019035;-65
2024/03/22 02:02:42;;;;;;;24.60;11.00;;;;;;;0.57;76.79;99685.20;78148;1301;3052512;-64
2024/03/22 02:05:15;;;;;;;18.20;10.00;;;;;;;0.58;76.60;99686.02;79554;1295;3013049;-64
2024/03/22 02:07:43;;;;;;;20.30;10.70;;;;;;;0.62;76.47;99685.27;78355;1295;3053205;-64
2024/03/22 02:10:13;;;;;;;21.60;10.60;;;;;;;0.63;76.29;99688.00;79532;1301;3013540;-65
2024/03/22 02:12:42;;;;;;;19.70;10.30;;;;;;;0.62;76.28;99688.02;78994;1300;3011431;-66
2024/03/22 02:15:09;;;;;;;16.40;10.00;;;;;;;0.58;75.96;99691.20;79452;1301;3020785;-65
2024/03/22 02:17:36;;;;;;;21.40;10.00;;;;;;;0.59;76.09;99687.73;79757;1300;3012705;-65
2024/03/22 02:20:04;;;;;;;19.30;10.20;;;;;;;0.63;76.15;99686.48;78595;1295;3025769;-65
2024/03/22 02:22:31;;;;;;;25.70;10.30;;;;;;;0.67;75.79;99681.56;79616;1296;3011482;-65
2024/03/22 02:24:58;;;;;;;20.40;10.90;;;;;;;0.64;75.44;99685.75;79518;1301;3011644;-65
2024/03/22 02:27:26;;;;;;;21.00;9.80;;;;;;;0.68;75.88;99676.92;78403;1298;3052370;-64
2024/03/22 02:29:52;;;;;;;17.80;10.10;;;;;;;0.73;75.99;99677.67;79514;1295;3018928;-64
2024/03/22 02:32:19;;;;;;;20.20;10.50;;;;;;;0.68;75.96;99682.25;79329;1298;3011667;-64
2024/03/22 02:34:47;;;;;;;18.90;9.90;;;;;;;0.70;76.14;99680.48;78298;1295;3026649;-64
2024/03/22 02:37:13;;;;;;;17.90;9.70;;;;;;;0.69;76.26;99680.17;79336;1295;3018252;-64
2024/03/22 02:39:40;;;;;;;19.10;10.40;;;;;;;0.69;76.45;99674.13;79278;1298;3011926;-64
2024/03/22 02:42:08;;;;;;;19.10;10.10;;;;;;;0.76;76.25;99673.31;78471;1301;3025938;-63
2024/03/22 02:47:01;;;;;;;17.30;10.20;;;;;;;0.88;75.92;99672.77;79467;1296;3013122;-64
2024/03/22 02:49:30;;;;;;;14.60;8.80;;;;;;;0.98;75.69;99666.38;78773;1295;3011647;-64
2024/03/22 02:51:57;;;;;;;19.90;9.70;;;;;;;1.05;75.52;99665.73;79482;1295;3013608;-63
2024/03/22 02:54:23;;;;;;;17.70;9.70;;;;;;;1.10;75.02;99667.19;79670;1295;3011792;-65
2024/03/22 02:56:51;;;;;;;19.70;8.90;;;;;;;1.18;74.92;99666.88;78361;1298;3027110;-66
2024/03/22 02:59:18;;;;;;;17.90;9.10;;;;;;;1.22;74.91;99669.71;80298;1298;3011690;-66
2024/03/22 03:01:44;;;;;;;17.60;9.70;;;;;;;1.28;74.48;99669.10;79913;1298;3011869;-65
2024/03/22 03:04:12;;;;;;;15.60;8.20;;;;;;;1.32;74.31;99668.48;78436;1298;3026498;-66
2024/03/22 03:06:39;;;;;;;14.10;8.10;;;;;;;1.34;74.35;99670.19;79593;1295;3012774;-66
2024/03/22 03:09:08;;;;;;;15.40;8.80;;;;;;;1.30;74.34;99674.05;79663;1298;3012931;-64
2024/03/22 03:11:35;;;;;;;15.00;8.80;;;;;;;1.36;74.51;99674.83;78790;1295;3053303;-64
2024/03/22 03:14:02;;;;;;;13.00;8.20;;;;;;;1.44;74.43;99672.06;79366;1295;3012926;-65
2024/03/22 03:16:29;;;;;;;15.80;8.30;;;;;;;1.44;74.11;99672.93;79363;1295;3011826;-64
2024/03/22 03:18:57;;;;;;;13.90;8.20;;;;;;;1.49;74.03;99664.36;78195;1298;3026527;-65
2024/03/22 03:21:23;;;;;;;13.00;7.90;;;;;;;1.49;74.24;99666.09;79488;1296;3020413;-65
2024/03/22 03:24:30;;;;;;;16.70;8.90;;;;;;;1.59;74.11;99662.63;80285;1302;3011653;-64
2024/03/22 03:26:56;;;;;;;14.20;8.10;;;;;;;1.52;74.46;99663.42;79046;1307;3013258;-64
2024/03/22 03:29:23;;;;;;;14.50;7.70;;;;;;;1.47;74.40;99663.02;78904;1306;3011698;-65
2024/03/22 03:31:51;;;;;;;12.90;7.40;;;;;;;1.50;74.73;99651.58;77866;1307;3025867;-64
2024/03/22 03:34:19;;;;;;;13.60;7.10;;;;;;;1.47;75.13;99653.34;79205;1301;3013054;-65
2024/03/22 03:36:46;;;;;;;12.10;7.00;;;;;;;1.52;75.04;99654.13;78890;1302;3011912;-65
2024/03/22 03:39:14;;;;;;;12.80;6.70;;;;;;;1.60;74.94;99654.30;78045;1299;3048315;-64
2024/03/22 03:41:41;;;;;;;15.50;7.10;;;;;;;1.61;74.93;99653.41;79322;1298;3012211;-65
2024/03/22 03:44:07;;;;;;;12.90;7.40;;;;;;;1.62;75.00;99664.79;79269;1300;3012954;-64
2024/03/22 03:46:36;;;;;;;12.60;7.50;;;;;;;1.60;75.24;99666.90;78254;1300;3028189;-64
2024/03/22 03:49:02;;;;;;;13.40;6.90;;;;;;;1.64;75.45;99664.93;79151;1301;3013470;-64
2024/03/22 03:51:29;;;;;;;14.00;7.40;;;;;;;1.63;75.81;99664.27;79332;1301;3013064;-64
2024/03/22 03:53:57;;;;;;;11.50;7.70;;;;;;;1.67;75.79;99664.67;78045;1300;3026236;-65
2024/03/22 03:56:24;;;;;;;14.60;8.80;;;;;;;1.73;75.71;99665.24;80105;1297;3018610;-66
2024/03/22 03:58:50;;;;;;;14.30;7.60;;;;;;;1.79;75.59;99667.02;79585;1300;3011532;-66
2024/03/22 04:01:18;;;;;;;12.80;7.70;;;;;;;1.78;75.76;99663.42;78401;1301;3025759;-65
2024/03/22 04:03:44;;;;;;;17.10;8.20;;;;;;;1.79;75.93;99665.98;79520;1301;3013073;-64
2024/03/22 04:06:11;;;;;;;14.80;7.60;;;;;;;1.85;75.81;99662.06;79266;1300;3013259;-64
2024/03/22 04:08:39;;;;;;;17.30;8.30;;;;;;;1.86;75.91;99662.04;78056;1301;3028977;-64
2024/03/22 04:11:06;;;;;;;12.70;7.30;;;;;;;1.92;75.72;99658.63;79550;1299;3013311;-64
2024/03/22 04:13:33;;;;;;;14.60;8.10;;;;;;;1.90;75.74;99664.37;79509;1301;3012195;-64
2024/03/22 04:16:02;;;;;;;14.50;8.40;;;;;;;1.91;76.01;99662.46;77974;1300;3028533;-65
2024/03/22 04:18:29;;;;;;;14.30;8.30;;;;;;;1.93;75.96;99664.84;79238;1301;3013475;-65
2024/03/22 04:20:56;;;;;;;14.00;9.00;;;;;;;1.98;76.06;99661.95;79273;1298;3013633;-65
2024/03/22 04:23:24;;;;;;;14.10;8.30;;;;;;;1.96;75.89;99664.07;77985;1299;3048545;-64
2024/03/22 04:25:53;;;;;;;14.80;8.00;;;;;;;2.03;75.97;99663.55;79370;1298;3011494;-64
2024/03/22 04:28:20;;;;;;;15.70;7.80;;;;;;;2.10;75.24;99660.81;79593;1298;3013855;-65
2024/03/22 04:31:02;;;;;;;13.40;8.30;;;;;;;2.12;75.45;99657.48;78457;1298;3052498;-65
2024/03/22 04:33:30;;;;;;;17.10;8.50;;;;;;;2.14;74.93;99661.23;78021;1301;3070043;-67
2024/03/22 04:35:57;;;;;;;14.80;8.30;;;;;;;2.07;74.52;99663.30;79482;1297;3013114;-64
2024/03/22 04:38:25;;;;;;;14.50;8.30;;;;;;;2.06;74.98;99663.84;79806;1298;3011832;-64
2024/03/22 04:40:53;;;;;;;17.20;9.10;;;;;;;2.09;74.89;99661.88;78725;1297;3051499;-64
2024/03/22 04:43:20;;;;;;;13.10;7.80;;;;;;;2.11;74.68;99667.20;79441;1301;3014033;-64
2024/03/22 04:45:47;;;;;;;13.60;6.50;;;;;;;2.11;73.89;99667.88;79163;1301;3011543;-65
2024/03/22 04:48:17;;;;;;;9.00;5.40;;;;;;;2.08;73.81;99671.05;78895;1301;3070842;-63
2024/03/22 04:50:49;;;;;;;8.90;5.10;;;;;;;2.13;73.09;99672.16;79464;1299;3011631;-64
2024/03/22 04:53:18;;;;;;;7.50;4.10;;;;;;;2.12;73.11;99670.96;78025;1298;3056003;-64
2024/03/22 04:55:45;;;;;;;5.90;4.00;;;;;;;2.15;73.02;99669.68;79216;1297;3013308;-64
2024/03/22 04:58:19;;;;;;;7.70;4.40;;;;;;;2.16;72.69;99668.63;79341;1299;3013404;-63
2024/03/22 05:00:48;;;;;;;6.40;4.10;;;;;;;2.14;72.76;99667.30;78017;1301;3052589;-63
2024/03/22 05:03:16;;;;;;;9.70;4.90;;;;;;;2.10;72.89;99664.44;79327;1298;3013685;-62
2024/03/22 05:05:43;;;;;;;7.30;4.50;;;;;;;2.11;72.81;99666.50;79686;1299;3011904;-64
2024/03/22 05:08:10;;;;;;;9.10;4.70;;;;;;;2.11;73.24;99666.66;78236;1298;3056010;-64
2024/03/22 05:10:37;;;;;;;7.80;4.40;;;;;;;2.17;73.23;99669.82;79256;1298;3013594;-63
2024/03/22 05:13:04;;;;;;;7.20;3.80;;;;;;;2.25;72.90;99668.43;79792;1298;3011361;-64
2024/03/22 05:15:32;;;;;;;7.50;3.50;;;;;;;2.27;72.59;99669.77;78536;1297;3026341;-64
2024/03/22 05:17:59;;;;;;;8.10;4.10;;;;;;;2.27;72.12;99664.40;79521;1298;3018383;-64
2024/03/22 05:20:26;;;;;;;5.90;3.50;;;;;;;2.38;72.21;99663.64;79430;1298;3011637;-64
2024/03/22 05:22:53;;;;;;;5.50;3.30;;;;;;;2.37;71.56;99669.17;77981;1297;3055833;-65
2024/03/22 05:25:20;;;;;;;6.90;3.70;;;;;;;2.24;71.80;99674.48;79475;1297;3013479;-64
2024/03/22 05:27:47;;;;;;;7.60;4.00;;;;;;;2.32;72.17;99672.58;79328;1298;3011415;-64
2024/03/22 05:30:14;;;;;;;6.70;3.20;;;;;;;2.42;71.62;99674.26;78213;1301;3028744;-64
2024/03/22 05:32:41;;;;;;;4.70;3.20;;;;;;;2.41;71.55;99670.63;79394;1297;3013060;-64
2024/03/22 05:35:08;;;;;;;4.60;3.30;;;;;;;2.47;71.52;99670.14;79475;1301;3013935;-67
2024/03/22 05:37:36;;;;;;;7.30;3.50;;;;;;;2.48;71.35;99671.17;78216;1298;3026252;-64
2024/03/22 05:40:06;;;;;;;5.80;3.50;;;;;;;2.49;71.58;99672.00;79197;1298;3013282;-64
2024/03/22 05:42:34;;;;;;;7.90;3.70;;;;;;;2.51;71.78;99669.55;78190;1299;3049511;-64
2024/03/22 05:45:01;;;;;;;6.80;3.30;;;;;;;2.55;71.87;99670.99;79849;1300;3012822;-63
2024/03/22 05:47:28;;;;;;;5.60;3.30;;;;;;;2.44;71.49;99674.03;79382;1296;3011819;-64
2024/03/22 05:49:56;;;;;;;4.50;3.30;;;;;;;2.35;72.25;99677.86;78203;1300;3028084;-61
2024/03/22 05:52:23;;;;;;;3.60;2.70;;;;;;;2.46;71.99;99681.07;79507;1297;3018477;-63
2024/03/22 05:54:50;;;;;;;5.10;3.10;;;;;;;2.42;71.76;99680.99;79346;1295;3012534;-62
2024/03/22 05:57:17;;;;;;;5.60;3.10;;;;;;;2.43;72.03;99674.74;78226;1299;3050505;-62
2024/03/22 05:59:44;;;;;;;5.50;2.70;;;;;;;2.43;71.95;99673.35;79439;1298;3013154;-63
2024/03/22 06:02:11;;;;;;;5.10;3.40;;;;;;;2.53;71.94;99674.52;79446;1298;3011583;-66
2024/03/22 06:04:39;;;;;;;7.90;3.50;;;;;;;2.41;71.82;99676.52;78376;1295;3027004;-64
2024/03/22 06:07:06;;;;;;;7.70;3.40;;;;;;;2.47;72.28;99677.77;79409;1295;3020476;-63
2024/03/22 06:09:45;;;;;;;6.50;3.90;;;;;;;2.44;71.88;99675.24;79423;1298;3011987;-63
2024/03/22 06:12:13;;;;;;;6.00;4.40;;;;;;;2.41;71.29;99671.67;78321;1300;3050271;-63
2024/03/22 06:14:41;;;;;;;9.30;4.30;;;;;;;2.31;71.35;99668.44;79657;1295;3013651;-63
2024/03/22 06:17:07;;;;;;;6.00;4.20;;;;;;;2.27;71.28;99673.73;79397;1300;3011689;-63
2024/03/22 06:19:36;;;;;;;6.20;4.50;;;;;;;2.35;71.55;99675.63;78289;1301;3052294;-62
2024/03/22 06:22:03;;;;;;;6.00;4.10;;;;;;;2.51;71.16;99674.57;79531;1295;3013250;-62
2024/03/22 06:24:29;;;;;;;6.30;4.20;;;;;;;2.42;70.35;99674.24;79593;1295;3011725;-62
2024/03/22 06:26:57;;;;;;;6.50;4.40;;;;;;;2.52;70.12;99679.89;78199;1295;3049193;-63
2024/03/22 06:29:24;;;;;;;8.20;4.30;;;;;;;2.62;69.20;99682.58;79447;1300;3013251;-63
2024/03/22 06:31:52;;;;;;;8.30;4.50;;;;;;;2.72;68.73;99680.63;79450;1295;3013067;-63
2024/03/22 06:34:20;;;;;;;10.40;4.80;;;;;;;2.70;67.69;99679.95;78243;1300;3051754;-61
2024/03/22 06:36:47;;;;;;;8.10;5.30;;;;;;;2.63;67.43;99684.46;79503;1300;3013386;-63
2024/03/22 06:39:14;;;;;;;9.30;5.50;;;;;;;2.54;66.77;99681.04;79455;1295;3011424;-63
2024/03/22 06:41:42;;;;;;;10.70;5.20;;;;;;;2.72;66.76;99685.63;78072;1300;3028595;-62
2024/03/22 06:44:13;;;;;;;7.20;5.20;;;;;;;2.91;65.89;99691.37;79436;1300;3013649;-62
2024/03/22 06:46:41;;;;;;;10.90;5.60;;;;;;;2.76;65.07;99688.29;78232;1299;3069420;-61
2024/03/22 06:49:08;;;;;;;8.40;5.40;;;;;;;2.77;64.77;99687.92;79281;1295;3013168;-62
2024/03/22 06:51:35;;;;;;;9.50;5.90;;;;;;;2.95;64.30;99684.19;79398;1295;3011608;-63
2024/03/22 06:54:03;;;;;;;10.50;6.10;;;;;;;3.00;63.49;99688.37;78224;1295;3028163;-61
2024/03/22 06:56:29;;;;;;;10.00;5.90;;;;;;;3.13;62.82;99690.29;79294;1302;3012741;-63
2024/03/22 06:58:56;;;;;;;10.60;6.70;;;;;;;2.97;62.15;99690.01;79270;1299;3013266;-62
2024/03/22 07:01:24;;;;;;;12.00;6.30;;;;;;;3.05;62.12;99689.63;78008;1299;3025635;-63
2024/03/22 07:03:52;;;;;;;11.90;6.80;;;;;;;3.02;62.14;99685.91;79278;1295;3018407;-63
2024/03/22 07:06:18;;;;;;;8.30;5.80;;;;;;;3.05;62.04;99686.35;79322;1295;3012816;-62
2024/03/22 07:08:46;;;;;;;11.30;6.60;;;;;;;3.07;62.14;99681.61;78108;1295;3053069;-63
2024/03/22 07:11:13;;;;;;;10.80;7.00;;;;;;;3.04;62.48;99683.77;79420;1295;3013054;-62
2024/03/22 07:13:39;;;;;;;9.70;6.40;;;;;;;3.07;62.62;99685.77;80734;1295;3011896;-63
2024/03/22 07:16:07;;;;;;;12.00;6.60;;;;;;;2.96;62.50;99690.05;78218;1300;3025445;-63
2024/03/22 07:18:34;;;;;;;11.20;6.90;;;;;;;3.07;62.04;99693.39;79299;1295;3013674;-62
2024/03/22 07:21:02;;;;;;;10.60;6.20;;;;;;;3.07;61.52;99692.00;79834;1298;3011451;-66
2024/03/22 07:23:30;;;;;;;12.10;6.20;;;;;;;3.03;61.21;99689.34;78251;1295;3053588;-65
2024/03/22 07:25:56;;;;;;;9.40;6.10;;;;;;;3.02;61.03;99689.36;79372;1295;3013298;-64
2024/03/22 07:28:23;;;;;;;10.70;6.30;;;;;;;3.04;61.14;99691.89;79345;1299;3012870;-64
2024/03/22 07:30:51;;;;;;;9.50;5.70;;;;;;;3.02;60.88;99691.95;78098;1295;3026454;-64
2024/03/22 07:33:18;;;;;;;8.40;5.20;;;;;;;3.11;60.89;99687.06;79894;1295;3021185;-65
2024/03/22 07:35:44;;;;;;;8.60;5.40;;;;;;;3.18;60.67;99683.05;79767;1295;3011418;-63
2024/03/22 07:38:12;;;;;;;9.80;5.90;;;;;;;3.27;60.75;99685.75;78220;1295;3026060;-63
2024/03/22 07:40:39;;;;;;;8.60;5.60;;;;;;;3.34;60.55;99683.52;79348;1295;3013650;-64
2024/03/22 07:43:06;;;;;;;14.20;5.70;;;;;;;3.45;60.08;99684.93;79502;1299;3012772;-63
2024/03/22 07:45:34;;;;;;;8.30;5.30;;;;;;;3.47;59.94;99681.94;78571;1300;3024915;-62
2024/03/22 07:48:01;;;;;;;9.50;5.60;;;;;;;3.60;59.86;99679.81;79619;1295;3013297;-64
2024/03/22 07:50:28;;;;;;;10.30;6.00;;;;;;;3.72;59.51;99676.02;79630;1295;3011501;-63
2024/03/22 07:52:57;;;;;;;10.20;5.70;;;;;;;3.69;59.47;99668.98;78209;1295;3028091;-63
2024/03/22 07:55:23;;;;;;;11.00;5.90;;;;;;;3.78;59.43;99669.62;79422;1301;3013018;-63
2024/03/22 07:57:50;;;;;;;10.50;5.60;;;;;;;3.89;59.29;99666.68;79400;1300;3013209;-62
2024/03/22 08:00:19;;;;;;;9.80;6.10;;;;;;;3.98;58.79;99666.41;78756;1300;3028978;-65
2024/03/22 08:02:46;;;;;;;12.60;6.10;;;;;;;4.20;58.66;99660.02;79551;1295;3012417;-63
2024/03/22 08:05:13;;;;;;;9.30;5.60;;;;;;;4.39;58.07;99655.61;79291;1295;3013814;-62
2024/03/22 08:07:43;;;;;;;8.40;6.00;;;;;;;4.32;57.37;99655.14;78190;1299;3053493;-59
2024/03/22 08:10:10;;;;;;;8.80;5.30;;;;;;;4.37;57.80;99651.34;79861;1301;3013038;-66
2024/03/22 08:12:36;;;;;;;11.60;5.00;;;;;;;4.39;57.78;99652.15;79768;1294;3013680;-63
2024/03/22 08:15:05;;;;;;;9.20;5.30;;;;;;;4.54;57.62;99648.18;78295;1298;3069282;-63
2024/03/22 08:17:32;;;;;;;10.00;5.60;;;;;;;4.47;57.63;99647.36;79448;1295;3013640;-63
2024/03/22 08:19:58;;;;;;;9.30;5.60;;;;;;;4.46;57.72;99643.23;79235;1295;3013290;-61
2024/03/22 08:22:26;;;;;;;16.90;5.80;;;;;;;4.46;57.54;99647.76;78254;1295;3053823;-61
2024/03/22 08:24:55;;;;;;;11.30;5.70;;;;;;;4.62;57.46;99647.40;82042;1294;3013860;-62
2024/03/22 08:27:24;;;;;;;9.80;4.90;;;;;;;4.65;57.23;99643.84;81493;1294;3011186;-63
2024/03/22 08:29:51;;;;;;;8.80;4.90;;;;;;;4.66;57.17;99641.71;82062;1295;3012681;-63
2024/03/22 08:32:17;;;;;;;8.30;5.10;;;;;;;4.77;57.24;99638.92;82035;1294;3011603;-62
2024/03/22 08:34:46;;;;;;;7.50;4.90;;;;;;;4.94;57.31;99633.14;80728;1294;3026639;-64
2024/03/22 08:37:12;;;;;;;9.90;5.40;;;;;;;5.15;57.02;99630.66;82016;1295;3013774;-63
2024/03/22 08:39:38;;;;;;;7.80;5.10;;;;;;;5.06;56.42;99630.09;82001;1295;3011263;-64
2024/03/22 08:42:07;;;;;;;9.10;5.20;;;;;;;5.10;56.39;99627.90;80741;1294;3052524;-65
2024/03/22 08:44:33;;;;;;;10.10;5.10;;;;;;;5.11;56.27;99632.02;82049;1295;3018904;-63
2024/03/22 08:47:00;;;;;;;7.80;4.80;;;;;;;5.23;56.21;99629.34;81972;1294;3011443;-63
2024/03/22 08:49:28;;;;;;;11.10;5.80;;;;;;;5.17;56.38;99630.57;80757;1294;3026060;-63
2024/03/22 08:51:55;;;;;;;7.30;5.10;;;;;;;4.99;56.97;99626.88;82045;1294;3012480;-61
2024/03/22 08:54:21;;;;;;;9.80;5.40;;;;;;;5.06;57.10;99628.73;82024;1294;3011374;-63
2024/03/22 08:56:49;;;;;;;8.50;5.40;;;;;;;5.15;57.03;99631.54;80756;1294;3026764;-63
2024/03/22 08:59:16;;;;;;;8.50;5.30;;;;;;;5.11;56.88;99631.14;82083;1294;3017900;-64
2024/03/22 09:01:42;;;;;;;8.40;5.10;;;;;;;5.16;56.91;99626.30;82020;1295;3011016;-62
2024/03/22 09:04:10;;;;;;;8.70;5.20;;;;;;;5.25;56.72;99619.17;80732;1294;3026350;-63
2024/03/22 09:06:36;;;;;;;8.40;5.20;;;;;;;5.25;56.37;99630.13;82000;1295;3012596;-63
2024/03/22 09:09:03;;;;;;;8.70;5.60;;;;;;;5.31;56.47;99628.34;81995;1295;3011550;-62
2024/03/22 09:11:31;;;;;;;10.00;5.30;;;;;;;5.50;56.41;99631.30;80727;1294;3025813;-63
2024/03/22 09:13:58;;;;;;;10.50;5.30;;;;;;;5.54;55.89;99634.28;82030;1295;3012645;-64
2024/03/22 09:16:24;;;;;;;7.20;5.10;;;;;;;5.57;55.90;99635.92;81998;1295;3011082;-62
2024/03/22 09:18:52;;;;;;;11.30;5.40;;;;;;;5.49;55.55;99627.34;80743;1294;3026648;-64
2024/03/22 09:21:19;;;;;;;11.00;6.30;;;;;;;5.49;56.02;99628.20;81994;1294;3012430;-62
2024/03/22 09:23:45;;;;;;;8.20;5.50;;;;;;;5.46;56.16;99623.64;81996;1295;3011252;-63
2024/03/22 09:26:14;;;;;;;14.80;5.80;;;;;;;5.35;56.65;99623.34;80741;1295;3025605;-65
2024/03/22 09:28:42;;;;;;;14.90;5.50;;;;;;;5.41;56.65;99620.33;82026;1297;3012649;-61
2024/03/22 09:31:08;;;;;;;8.60;5.30;;;;;;;5.52;56.40;99626.38;81991;1295;3011214;-63
2024/03/22 09:33:36;;;;;;;8.30;5.50;;;;;;;5.50;55.95;99624.19;80753;1295;3055144;-64
2024/03/22 09:36:03;;;;;;;9.10;5.50;;;;;;;5.41;56.24;99620.33;82005;1295;3017965;-64
2024/03/22 09:38:30;;;;;;;9.40;5.30;;;;;;;5.37;56.68;99624.68;81953;1295;3011346;-63
2024/03/22 09:40:58;;;;;;;8.90;5.50;;;;;;;5.43;56.74;99621.13;80758;1298;3027699;-63
2024/03/22 09:43:24;;;;;;;8.70;5.80;;;;;;;5.51;56.36;99619.30;82041;1294;3018074;-65
2024/03/22 09:45:51;;;;;;;10.40;5.80;;;;;;;5.47;56.52;99616.98;81990;1294;3011373;-67
2024/03/22 09:48:19;;;;;;;7.20;5.50;;;;;;;5.61;56.27;99610.75;80687;1295;3025828;-65
2024/03/22 09:50:47;;;;;;;10.30;5.50;;;;;;;5.68;55.96;99600.06;82014;1294;3011298;-65
2024/03/22 09:53:18;;;;;;;8.20;5.80;;;;;;;5.69;55.51;99602.45;81997;1294;3011298;-63
2024/03/22 09:55:49;;;;;;;13.30;5.40;;;;;;;5.84;55.15;99597.00;80725;1298;3052216;-63
2024/03/22 09:58:19;;;;;;;8.30;5.50;;;;;;;5.98;54.80;99591.06;82031;1294;3011396;-63
2024/03/22 10:00:47;;;;;;;11.90;5.50;;;;;;;5.93;54.50;99593.52;80761;1294;3069706;-63
2024/03/22 10:03:13;;;;;;;8.40;4.90;;;;;;;5.98;54.45;99597.15;82028;1294;3012386;-63
2024/03/22 10:05:40;;;;;;;7.70;5.20;;;;;;;6.00;54.60;99595.55;81914;1295;3011479;-64
2024/03/22 10:08:08;;;;;;;8.30;5.30;;;;;;;6.11;54.57;99596.50;80772;1294;3026008;-64
2024/03/22 10:10:35;;;;;;;10.30;5.80;;;;;;;6.14;54.28;99595.86;82013;1294;3012900;-64
2024/03/22 10:13:02;;;;;;;10.40;5.70;;;;;;;6.06;54.16;99597.89;81941;1295;3011363;-64
2024/03/22 10:15:30;;;;;;;11.40;6.10;;;;;;;6.21;54.23;99600.64;80722;1295;3067998;-63
2024/03/22 10:17:57;;;;;;;9.60;6.20;;;;;;;6.10;54.18;99600.73;82042;1295;3017971;-63
2024/03/22 10:20:24;;;;;;;10.00;5.60;;;;;;;6.08;54.03;99598.17;82013;1294;3011288;-64
2024/03/22 10:22:55;;;;;;;8.80;5.40;;;;;;;5.99;54.52;99600.27;80720;1295;3025645;-64
2024/03/22 10:25:28;;;;;;;10.10;5.30;;;;;;;5.98;54.31;99603.06;81969;1295;3011180;-64
2024/03/22 10:27:56;;;;;;;10.70;5.60;;;;;;;6.05;54.24;99606.63;80771;1294;3052306;-64
2024/03/22 10:30:24;;;;;;;10.30;5.40;;;;;;;6.00;54.57;99599.33;81925;1295;3018730;-63
2024/03/22 10:32:51;;;;;;;10.00;6.00;;;;;;;6.02;54.82;99600.50;82046;1294;3011106;-64
2024/03/22 10:35:19;;;;;;;12.60;6.50;;;;;;;6.06;54.57;99596.52;80759;1294;3056801;-64
2024/03/22 10:37:46;;;;;;;11.40;6.20;;;;;;;6.00;54.99;99600.20;81991;1295;3013492;-65
2024/03/22 10:40:14;;;;;;;10.50;6.40;;;;;;;5.95;55.54;99595.21;81869;1295;3011325;-63
2024/03/22 10:42:42;;;;;;;13.90;6.50;;;;;;;5.88;55.74;99595.79;80782;1294;3052767;-63
2024/03/22 10:45:09;;;;;;;12.00;7.00;;;;;;;5.73;56.10;99595.16;82058;1295;3017855;-64
2024/03/22 10:47:36;;;;;;;11.50;6.20;;;;;;;5.72;56.42;99593.29;82039;1295;3011399;-64
2024/03/22 10:50:10;;;;;;;13.30;6.20;;;;;;;5.90;55.89;99591.73;80720;1295;3026226;-65
2024/03/22 10:52:48;;;;;;;10.30;5.70;;;;;;;5.99;55.45;99594.35;82004;1295;3011262;-64
2024/03/22 10:55:22;;;;;;;11.60;6.00;;;;;;;6.00;55.60;99593.77;80694;1295;3053307;-64
2024/03/22 10:57:51;;;;;;;10.10;5.60;;;;;;;6.11;55.31;99593.35;81360;1295;3011296;-63
2024/03/22 11:00:27;;;;;;;7.70;5.40;;;;;;;6.31;54.72;99591.49;82050;1294;3018408;-64
2024/03/22 11:02:55;;;;;;;10.30;6.00;;;;;;;6.38;54.55;99589.31;80751;1295;3051537;-64
2024/03/22 11:05:22;;;;;;;11.70;5.90;;;;;;;6.41;54.18;99589.34;82051;1295;3018114;-64
2024/03/22 11:07:59;;;;;;;12.40;6.60;;;;;;;6.40;54.07;99591.30;81961;1295;3011241;-65
2024/03/22 11:10:32;;;;;;;9.90;6.00;;;;;;;6.24;54.33;99591.98;80682;1295;3049788;-63
2024/03/22 11:13:06;;;;;;;15.60;6.30;;;;;;;6.17;54.68;99586.88;82017;1294;3011454;-65
2024/03/22 11:15:35;;;;;;;8.00;5.20;;;;;;;6.35;54.69;99591.35;80680;1298;3049678;-64
2024/03/22 11:18:01;;;;;;;13.10;6.10;;;;;;;6.34;54.27;99584.08;82058;1295;3018042;-63
2024/03/22 11:20:29;;;;;;;8.00;5.10;;;;;;;6.17;54.76;99579.05;82016;1294;3011337;-63
2024/03/22 11:22:57;;;;;;;9.80;5.40;;;;;;;6.16;54.90;99577.36;80786;1295;3051483;-64
2024/03/22 11:25:24;;;;;;;11.50;5.60;;;;;;;6.35;54.92;99577.77;82041;1295;3013277;-63